Time;durP1;ratioP1;P1;durP2;ratioP2;P2;SDS_P1;SDS_P2;PMS_P1;PMS_P2;Temp;Humidity;BMP_temperature;BMP_pressure;BME280_temperature;BME280_humidity;BME280_pressure;Samples;Min_cycle;Max_cycle;Signal;HPM_P1;HPM_P2
2023/05/31 00:01:25;;;;;;;0.00;0.00;;;;;;;;;;4999092;28;20402;-80
2023/05/31 00:03:51;;;;;;;0.00;0.00;;;;;;;;;;4997847;28;20113;-80
2023/05/31 00:06:17;;;;;;;0.00;0.00;;;;;;;;;;4998106;28;20116;-81
2023/05/31 00:08:43;;;;;;;0.00;0.00;;;;;;;;;;4999498;28;20053;-79
2023/05/31 00:11:09;;;;;;;0.00;0.00;;;;;;;;;;4999160;28;20050;-81
2023/05/31 00:13:36;;;;;;;0.00;0.00;;;;;;;;;;4999269;28;20038;-80
2023/05/31 00:16:02;;;;;;;0.00;0.00;;;;;;;;;;4999118;28;20402;-81
2023/05/31 00:18:28;;;;;;;0.00;0.00;;;;;;;;;;4997945;28;20058;-80
2023/05/31 00:20:54;;;;;;;0.00;0.00;;;;;;;;;;4999066;28;20437;-81
2023/05/31 00:23:20;;;;;;;0.00;0.00;;;;;;;;;;4999332;28;20042;-80
2023/05/31 00:25:46;;;;;;;0.00;0.00;;;;;;;;;;4997852;28;20444;-80
2023/05/31 00:28:12;;;;;;;0.00;0.00;;;;;;;;;;4997948;28;20038;-80
2023/05/31 00:30:38;;;;;;;0.00;0.00;;;;;;;;;;4997605;28;20132;-80
2023/05/31 00:33:04;;;;;;;0.00;0.00;;;;;;;;;;4997808;28;20483;-80
2023/05/31 00:35:30;;;;;;;0.00;0.00;;;;;;;;;;4998958;28;20050;-80
2023/05/31 00:37:57;;;;;;;0.00;0.00;;;;;;;;;;4998035;28;20368;-81
2023/05/31 00:40:23;;;;;;;0.00;0.00;;;;;;;;;;4998856;28;20050;-80
2023/05/31 00:42:49;;;;;;;0.00;0.00;;;;;;;;;;4997969;28;20038;-80
2023/05/31 00:45:15;;;;;;;0.00;0.00;;;;;;;;;;4997669;28;20046;-80
2023/05/31 00:47:41;;;;;;;0.00;0.00;;;;;;;;;;4997788;28;20102;-81
2023/05/31 00:50:07;;;;;;;0.00;0.00;;;;;;;;;;4997903;28;20445;-80
2023/05/31 00:52:34;;;;;;;0.00;0.00;;;;;;;;;;4999075;28;20042;-81
2023/05/31 00:55:00;;;;;;;0.00;0.00;;;;;;;;;;4994776;28;20047;-81
2023/05/31 00:57:27;;;;;;;0.00;0.00;;;;;;;;;;4996034;28;20034;-80
2023/05/31 00:59:53;;;;;;;0.00;0.00;;;;;;;;;;4994581;28;20049;-81
2023/05/31 01:02:19;;;;;;;0.00;0.00;;;;;;;;;;4994822;28;20046;-80
2023/05/31 01:04:45;;;;;;;0.00;0.00;;;;;;;;;;4996145;28;20066;-80
2023/05/31 01:07:11;;;;;;;0.00;0.00;;;;;;;;;;4996198;28;20046;-80
2023/05/31 01:09:42;;;;;;;0.00;0.00;;;;;;;;;;4996018;28;20045;-80
2023/05/31 01:12:26;;;;;;;0.00;0.00;;;;;;;;;;4995627;28;20410;-80
2023/05/31 01:15:04;;;;;;;0.00;0.00;;;;;;;;;;4994198;28;20628;-80
2023/05/31 01:17:36;;;;;;;0.00;0.00;;;;;;;;;;4995420;28;20045;-80
2023/05/31 01:20:04;;;;;;;0.00;0.00;;;;;;;;;;4995525;28;20046;-80
2023/05/31 01:22:30;;;;;;;0.00;0.00;;;;;;;;;;4995443;28;20355;-80
2023/05/31 01:25:15;;;;;;;0.00;0.00;;;;;;;;;;4994101;28;20046;-80
2023/05/31 01:27:42;;;;;;;0.00;0.00;;;;;;;;;;4995448;28;20053;-80
2023/05/31 01:30:09;;;;;;;0.00;0.00;;;;;;;;;;4995279;28;20046;-80
2023/05/31 01:32:36;;;;;;;0.00;0.00;;;;;;;;;;4995217;28;20048;-80
2023/05/31 01:35:03;;;;;;;0.00;0.00;;;;;;;;;;4995149;28;20408;-80
2023/05/31 01:37:29;;;;;;;0.00;0.00;;;;;;;;;;4994951;28;20125;-80
2023/05/31 01:39:55;;;;;;;0.00;0.00;;;;;;;;;;4995277;28;20117;-80
2023/05/31 01:42:22;;;;;;;0.00;0.00;;;;;;;;;;4993516;28;20092;-80
2023/05/31 01:44:49;;;;;;;0.00;0.00;;;;;;;;;;4993730;28;20046;-80
2023/05/31 01:47:15;;;;;;;0.00;0.00;;;;;;;;;;4994828;28;20035;-80
2023/05/31 01:49:42;;;;;;;0.00;0.00;;;;;;;;;;4993501;28;20046;-80
2023/05/31 01:52:11;;;;;;;0.00;0.00;;;;;;;;;;4994559;28;20061;-80
2023/05/31 01:54:37;;;;;;;0.00;0.00;;;;;;;;;;4993402;28;20053;-80
2023/05/31 01:57:04;;;;;;;0.00;0.00;;;;;;;;;;4993250;28;20046;-80
2023/05/31 01:59:30;;;;;;;0.00;0.00;;;;;;;;;;4994660;28;20070;-80
2023/05/31 02:01:57;;;;;;;0.00;0.00;;;;;;;;;;4994505;28;20053;-80
2023/05/31 02:04:23;;;;;;;0.00;0.00;;;;;;;;;;4993319;28;20158;-80
2023/05/31 02:06:51;;;;;;;0.00;0.00;;;;;;;;;;4992745;28;20062;-79
2023/05/31 02:09:17;;;;;;;0.00;0.00;;;;;;;;;;4993382;28;20046;-80
2023/05/31 02:11:43;;;;;;;0.00;0.00;;;;;;;;;;4993028;28;20574;-80
2023/05/31 02:14:10;;;;;;;0.00;0.00;;;;;;;;;;4994395;28;20125;-80
2023/05/31 02:16:36;;;;;;;0.00;0.00;;;;;;;;;;4992998;28;20046;-80
2023/05/31 02:19:02;;;;;;;0.00;0.00;;;;;;;;;;4992984;28;20038;-80
2023/05/31 02:21:29;;;;;;;0.00;0.00;;;;;;;;;;4992587;28;20466;-80
2023/05/31 02:23:55;;;;;;;0.00;0.00;;;;;;;;;;4994238;28;20442;-80
2023/05/31 02:26:23;;;;;;;0.00;0.00;;;;;;;;;;4994138;28;20046;-80
2023/05/31 02:28:49;;;;;;;0.00;0.00;;;;;;;;;;4994059;28;20046;-79
2023/05/31 02:31:15;;;;;;;0.00;0.00;;;;;;;;;;4993960;28;20045;-80
2023/05/31 02:33:41;;;;;;;0.00;0.00;;;;;;;;;;4993766;28;20124;-80
2023/05/31 02:36:08;;;;;;;0.00;0.00;;;;;;;;;;4993805;28;20502;-80
2023/05/31 02:38:34;;;;;;;0.00;0.00;;;;;;;;;;4992830;28;20042;-80
2023/05/31 02:41:00;;;;;;;0.00;0.00;;;;;;;;;;4992416;28;20044;-81
2023/05/31 02:43:26;;;;;;;0.00;0.00;;;;;;;;;;4992883;28;20331;-80
2023/05/31 02:45:52;;;;;;;0.00;0.00;;;;;;;;;;4992542;28;20046;-80
2023/05/31 02:48:18;;;;;;;0.00;0.00;;;;;;;;;;4992281;28;20490;-80
2023/05/31 02:50:44;;;;;;;0.00;0.00;;;;;;;;;;4992548;28;20068;-80
2023/05/31 02:53:10;;;;;;;0.00;0.00;;;;;;;;;;4992528;28;20042;-80
2023/05/31 02:55:39;;;;;;;0.00;0.00;;;;;;;;;;4992274;28;20050;-80
2023/05/31 02:58:06;;;;;;;0.00;0.00;;;;;;;;;;4992456;28;20382;-80
2023/05/31 03:00:32;;;;;;;0.00;0.00;;;;;;;;;;4992240;28;20077;-80
2023/05/31 03:02:58;;;;;;;0.00;0.00;;;;;;;;;;4993581;28;20053;-80
2023/05/31 03:05:26;;;;;;;0.00;0.00;;;;;;;;;;4993448;28;20533;-80
2023/05/31 03:07:52;;;;;;;0.00;0.00;;;;;;;;;;4975888;28;20542;-80
2023/05/31 03:10:18;;;;;;;0.00;0.00;;;;;;;;;;4993317;28;20173;-80
2023/05/31 03:12:44;;;;;;;0.00;0.00;;;;;;;;;;4993086;28;20042;-80
2023/05/31 03:15:10;;;;;;;0.00;0.00;;;;;;;;;;4993330;28;20387;-81
2023/05/31 03:17:39;;;;;;;0.00;0.00;;;;;;;;;;4992501;28;20044;-80
2023/05/31 03:20:08;;;;;;;0.00;0.00;;;;;;;;;;4993409;28;20042;-80
2023/05/31 03:22:34;;;;;;;0.00;0.00;;;;;;;;;;4991860;28;20053;-80
2023/05/31 03:25:01;;;;;;;0.00;0.00;;;;;;;;;;4993230;28;20045;-80
2023/05/31 03:27:27;;;;;;;0.00;0.00;;;;;;;;;;4992999;28;20100;-80
2023/05/31 03:29:53;;;;;;;0.00;0.00;;;;;;;;;;4991741;28;20050;-80
2023/05/31 03:32:19;;;;;;;0.00;0.00;;;;;;;;;;4993190;28;20042;-80
2023/05/31 03:34:45;;;;;;;0.00;0.00;;;;;;;;;;4993126;28;20053;-79
2023/05/31 03:37:11;;;;;;;0.00;0.00;;;;;;;;;;4991956;28;20050;-80
2023/05/31 03:39:37;;;;;;;0.00;0.00;;;;;;;;;;4991668;28;20042;-80
2023/05/31 03:42:03;;;;;;;0.00;0.00;;;;;;;;;;4992807;28;20083;-80
2023/05/31 03:44:29;;;;;;;0.00;0.00;;;;;;;;;;4993017;28;20042;-80
2023/05/31 03:46:55;;;;;;;0.00;0.00;;;;;;;;;;4991744;28;20053;-80
2023/05/31 03:49:21;;;;;;;0.00;0.00;;;;;;;;;;4991880;28;20510;-80
2023/05/31 03:51:47;;;;;;;0.00;0.00;;;;;;;;;;4991384;28;20132;-81
2023/05/31 03:54:13;;;;;;;0.00;0.00;;;;;;;;;;4991732;28;20054;-80
2023/05/31 03:56:39;;;;;;;0.00;0.00;;;;;;;;;;4991895;28;20478;-80
2023/05/31 03:59:05;;;;;;;0.00;0.00;;;;;;;;;;4991411;28;20102;-80
2023/05/31 04:01:32;;;;;;;0.00;0.00;;;;;;;;;;4993062;28;20048;-80
2023/05/31 04:03:59;;;;;;;0.00;0.00;;;;;;;;;;4991207;28;20142;-80
2023/05/31 04:06:26;;;;;;;0.00;0.00;;;;;;;;;;4991988;28;20466;-80
2023/05/31 04:08:52;;;;;;;0.00;0.00;;;;;;;;;;4991200;28;20560;-79
2023/05/31 04:11:18;;;;;;;0.00;0.00;;;;;;;;;;4992707;28;20486;-80
2023/05/31 04:13:44;;;;;;;0.00;0.00;;;;;;;;;;4991300;28;20142;-80
2023/05/31 04:16:10;;;;;;;0.75;0.00;;;;;;;;;;4975268;28;20042;-80
2023/05/31 04:18:36;;;;;;;0.00;0.00;;;;;;;;;;4991190;28;20195;-80
2023/05/31 04:21:02;;;;;;;0.20;0.10;;;;;;;;;;4992667;28;20039;-80
2023/05/31 04:23:28;;;;;;;0.00;0.00;;;;;;;;;;4991323;28;20046;-80
2023/05/31 04:25:54;;;;;;;0.00;0.00;;;;;;;;;;4992553;28;20118;-80
2023/05/31 04:28:20;;;;;;;0.00;0.00;;;;;;;;;;4992127;28;20042;-80
2023/05/31 04:30:46;;;;;;;0.00;0.00;;;;;;;;;;4979150;28;20050;-80
2023/05/31 04:33:13;;;;;;;0.00;0.00;;;;;;;;;;4996243;28;20371;-80
2023/05/31 04:35:40;;;;;;;0.00;0.00;;;;;;;;;;4996255;28;20525;-80
2023/05/31 04:38:08;;;;;;;0.00;0.00;;;;;;;;;;4994761;28;20057;-80
2023/05/31 04:40:34;;;;;;;0.00;0.00;;;;;;;;;;4994839;28;20035;-81
2023/05/31 04:43:03;;;;;;;0.00;0.00;;;;;;;;;;4994802;28;20035;-80
2023/05/31 04:45:30;;;;;;;0.00;0.00;;;;;;;;;;4996479;28;20437;-80
2023/05/31 04:47:57;;;;;;;0.00;0.00;;;;;;;;;;4994549;28;20046;-80
2023/05/31 04:50:24;;;;;;;0.00;0.00;;;;;;;;;;4994752;28;20053;-80
2023/05/31 04:52:51;;;;;;;0.00;0.00;;;;;;;;;;4978416;28;20042;-80
2023/05/31 04:55:17;;;;;;;0.00;0.00;;;;;;;;;;4995716;28;20053;-80
2023/05/31 04:57:43;;;;;;;0.00;0.00;;;;;;;;;;4994581;28;20046;-80
2023/05/31 05:00:10;;;;;;;0.00;0.00;;;;;;;;;;4978264;28;20053;-80
2023/05/31 05:02:36;;;;;;;0.00;0.00;;;;;;;;;;4978025;28;20550;-80
2023/05/31 05:05:04;;;;;;;0.00;0.00;;;;;;;;;;4978083;28;20498;-80
2023/05/31 05:07:30;;;;;;;0.00;0.00;;;;;;;;;;4995483;28;20058;-81
2023/05/31 05:09:56;;;;;;;0.00;0.00;;;;;;;;;;4994222;28;20105;-80
2023/05/31 05:12:22;;;;;;;0.00;0.00;;;;;;;;;;4995781;28;20406;-80
2023/05/31 05:14:48;;;;;;;0.00;0.00;;;;;;;;;;4995313;28;20053;-80
2023/05/31 05:17:14;;;;;;;0.00;0.00;;;;;;;;;;4994186;28;20375;-80
2023/05/31 05:19:40;;;;;;;0.00;0.00;;;;;;;;;;4995194;28;20042;-80
2023/05/31 05:22:06;;;;;;;0.00;0.00;;;;;;;;;;4995564;28;20097;-80
2023/05/31 05:24:32;;;;;;;0.00;0.00;;;;;;;;;;4994110;28;20049;-80
2023/05/31 05:26:58;;;;;;;0.00;0.00;;;;;;;;;;4995605;28;20047;-80
2023/05/31 05:29:24;;;;;;;0.00;0.00;;;;;;;;;;4993980;28;20046;-80
2023/05/31 05:31:50;;;;;;;0.00;0.00;;;;;;;;;;4994155;28;20038;-80
2023/05/31 05:34:16;;;;;;;0.00;0.00;;;;;;;;;;4994957;28;20070;-80
2023/05/31 05:36:42;;;;;;;0.00;0.00;;;;;;;;;;4994102;28;20042;-80
2023/05/31 05:39:08;;;;;;;0.00;0.00;;;;;;;;;;4994864;28;20126;-80
2023/05/31 05:41:34;;;;;;;0.00;0.00;;;;;;;;;;4976994;28;20046;-80
2023/05/31 05:44:00;;;;;;;0.00;0.00;;;;;;;;;;4995331;28;20073;-80
2023/05/31 05:46:26;;;;;;;0.00;0.00;;;;;;;;;;4994172;28;20513;-80
2023/05/31 05:48:52;;;;;;;0.00;0.00;;;;;;;;;;4993785;28;20050;-80
2023/05/31 05:51:18;;;;;;;0.00;0.00;;;;;;;;;;4993896;28;20387;-80
2023/05/31 05:53:44;;;;;;;0.00;0.00;;;;;;;;;;4993972;28;20726;-80
2023/05/31 05:56:18;;;;;;;0.00;0.00;;;;;;;;;;4993904;28;20053;-80
2023/05/31 05:58:46;;;;;;;0.00;0.00;;;;;;;;;;4994988;28;20043;-80
2023/05/31 06:01:12;;;;;;;0.00;0.00;;;;;;;;;;4994043;28;20038;-80
2023/05/31 06:03:39;;;;;;;0.20;0.00;;;;;;;;;;4994789;28;20073;-80
2023/05/31 06:06:05;;;;;;;0.00;0.00;;;;;;;;;;4993818;28;20049;-80
2023/05/31 06:08:31;;;;;;;0.00;0.00;;;;;;;;;;4994555;28;20134;-80
2023/05/31 06:10:57;;;;;;;0.00;0.00;;;;;;;;;;4993486;28;20054;-80
2023/05/31 06:13:23;;;;;;;0.00;0.00;;;;;;;;;;4993119;28;20502;-79
2023/05/31 06:15:49;;;;;;;0.00;0.00;;;;;;;;;;4994881;28;20052;-79
2023/05/31 06:18:15;;;;;;;0.00;0.00;;;;;;;;;;4994744;28;20472;-80
2023/05/31 06:20:41;;;;;;;0.00;0.00;;;;;;;;;;4993510;28;20134;-79
2023/05/31 06:23:07;;;;;;;0.00;0.00;;;;;;;;;;4994884;28;20121;-80
2023/05/31 06:25:35;;;;;;;0.00;0.00;;;;;;;;;;4994495;28;20038;-79
2023/05/31 06:28:01;;;;;;;0.00;0.00;;;;;;;;;;4993098;28;20046;-80
2023/05/31 06:30:27;;;;;;;0.00;0.00;;;;;;;;;;4994227;28;20034;-79
2023/05/31 06:32:53;;;;;;;0.00;0.00;;;;;;;;;;4993058;28;20043;-80
2023/05/31 06:35:20;;;;;;;0.00;0.00;;;;;;;;;;4993832;28;20057;-80
2023/05/31 06:37:46;;;;;;;0.20;0.20;;;;;;;;;;4994125;28;20096;-79
2023/05/31 06:40:12;;;;;;;0.00;0.00;;;;;;;;;;4976377;28;20038;-79
2023/05/31 06:42:38;;;;;;;0.00;0.00;;;;;;;;;;4994115;28;20343;-80
2023/05/31 06:45:04;;;;;;;0.00;0.00;;;;;;;;;;4993950;28;20125;-79
2023/05/31 06:47:30;;;;;;;0.00;0.00;;;;;;;;;;4992582;28;20058;-79
2023/05/31 06:49:56;;;;;;;0.00;0.00;;;;;;;;;;4993601;28;20042;-79
2023/05/31 06:52:22;;;;;;;0.00;0.00;;;;;;;;;;4994035;28;20045;-79
2023/05/31 06:54:51;;;;;;;0.00;0.00;;;;;;;;;;4992045;28;20046;-78
2023/05/31 06:57:17;;;;;;;0.00;0.00;;;;;;;;;;4992597;28;20038;-79
2023/05/31 06:59:42;;;;;;;0.00;0.00;;;;;;;;;;4993276;28;20070;-79
2023/05/31 07:02:09;;;;;;;0.00;0.00;;;;;;;;;;4993723;28;20034;-79
2023/05/31 07:04:35;;;;;;;0.00;0.00;;;;;;;;;;4993356;28;20141;-79
2023/05/31 07:07:02;;;;;;;0.00;0.00;;;;;;;;;;4992291;28;20086;-79
2023/05/31 07:09:28;;;;;;;0.00;0.00;;;;;;;;;;4993457;28;20398;-80
2023/05/31 07:11:54;;;;;;;0.00;0.00;;;;;;;;;;4992217;28;20505;-79
2023/05/31 07:14:21;;;;;;;0.00;0.00;;;;;;;;;;4975797;28;20085;-79
2023/05/31 07:16:48;;;;;;;0.00;0.00;;;;;;;;;;4993236;28;20505;-80
2023/05/31 07:19:14;;;;;;;0.00;0.00;;;;;;;;;;4991717;28;20038;-79
2023/05/31 07:21:40;;;;;;;0.00;0.00;;;;;;;;;;4992037;28;20053;-79
2023/05/31 07:24:06;;;;;;;0.00;0.00;;;;;;;;;;4993187;28;20065;-78
2023/05/31 07:26:32;;;;;;;0.00;0.00;;;;;;;;;;4993403;28;20401;-79
2023/05/31 07:28:58;;;;;;;0.00;0.00;;;;;;;;;;4991705;28;20043;-79
2023/05/31 07:31:24;;;;;;;0.00;0.00;;;;;;;;;;4991717;28;20541;-79
2023/05/31 07:33:50;;;;;;;0.00;0.00;;;;;;;;;;4991850;28;20078;-80
2023/05/31 07:36:17;;;;;;;0.00;0.00;;;;;;;;;;4991726;28;20069;-80
2023/05/31 07:38:43;;;;;;;0.00;0.00;;;;;;;;;;4993012;28;20046;-79
2023/05/31 07:41:09;;;;;;;0.00;0.00;;;;;;;;;;4991501;28;20046;-80
2023/05/31 07:43:36;;;;;;;0.00;0.00;;;;;;;;;;4993148;28;20520;-80
2023/05/31 07:46:02;;;;;;;0.00;0.00;;;;;;;;;;4992764;28;20042;-79
2023/05/31 07:48:28;;;;;;;0.00;0.00;;;;;;;;;;4993199;28;20054;-79
2023/05/31 07:50:54;;;;;;;0.00;0.00;;;;;;;;;;4992641;28;20039;-79
2023/05/31 07:53:20;;;;;;;0.00;0.00;;;;;;;;;;4991705;28;20092;-80
2023/05/31 07:55:47;;;;;;;0.00;0.00;;;;;;;;;;4991421;28;20050;-80
2023/05/31 07:58:13;;;;;;;0.00;0.00;;;;;;;;;;4992813;28;20486;-80
2023/05/31 08:00:39;;;;;;;0.00;0.00;;;;;;;;;;4992602;28;20069;-80
2023/05/31 08:03:05;;;;;;;0.00;0.00;;;;;;;;;;4993470;28;20038;-79
2023/05/31 08:05:31;;;;;;;0.00;0.00;;;;;;;;;;4995129;28;20057;-80
2023/05/31 08:07:57;;;;;;;0.00;0.00;;;;;;;;;;4995618;28;20046;-80
2023/05/31 08:10:23;;;;;;;0.00;0.00;;;;;;;;;;4995064;28;20053;-80
2023/05/31 08:12:49;;;;;;;0.00;0.00;;;;;;;;;;4995572;28;20101;-80
2023/05/31 08:15:15;;;;;;;0.00;0.00;;;;;;;;;;4995157;28;20100;-80
2023/05/31 08:17:43;;;;;;;0.00;0.00;;;;;;;;;;4996608;28;20422;-79
2023/05/31 08:20:10;;;;;;;0.00;0.00;;;;;;;;;;4995024;28;20550;-80
2023/05/31 08:22:36;;;;;;;0.00;0.00;;;;;;;;;;4996804;28;20074;-80
2023/05/31 08:25:02;;;;;;;0.00;0.00;;;;;;;;;;4996411;28;20181;-80
2023/05/31 08:27:28;;;;;;;0.00;0.00;;;;;;;;;;4996527;28;20046;-80
2023/05/31 08:29:54;;;;;;;0.00;0.00;;;;;;;;;;4995960;28;20038;-80
2023/05/31 08:32:20;;;;;;;0.00;0.00;;;;;;;;;;4996663;28;20138;-80
2023/05/31 08:34:46;;;;;;;0.00;0.00;;;;;;;;;;4996276;28;20042;-80
2023/05/31 08:37:13;;;;;;;0.00;0.00;;;;;;;;;;4996312;28;20481;-81
2023/05/31 08:39:39;;;;;;;0.00;0.00;;;;;;;;;;4994705;28;20046;-80
2023/05/31 08:42:06;;;;;;;0.00;0.00;;;;;;;;;;4996239;28;20038;-80
2023/05/31 08:44:32;;;;;;;0.00;0.00;;;;;;;;;;4996021;28;20046;-80
2023/05/31 08:47:00;;;;;;;0.00;0.00;;;;;;;;;;4995792;28;20046;-80
2023/05/31 08:49:26;;;;;;;0.00;0.00;;;;;;;;;;4994712;28;20070;-82
2023/05/31 08:51:52;;;;;;;0.00;0.00;;;;;;;;;;4995996;28;20340;-80
2023/05/31 08:54:18;;;;;;;0.00;0.00;;;;;;;;;;4994506;28;20097;-80
2023/05/31 08:56:45;;;;;;;0.00;0.00;;;;;;;;;;4994539;28;20125;-80
2023/05/31 08:59:12;;;;;;;0.00;0.00;;;;;;;;;;4996650;28;20030;-81
2023/05/31 09:01:38;;;;;;;0.00;0.00;;;;;;;;;;4995655;28;20376;-80
2023/05/31 09:04:08;;;;;;;0.00;0.00;;;;;;;;;;4994572;28;20059;-80
2023/05/31 09:06:34;;;;;;;0.00;0.00;;;;;;;;;;4995614;28;20054;-80
2023/05/31 09:09:01;;;;;;;0.00;0.00;;;;;;;;;;4995781;28;20042;-80
2023/05/31 09:11:28;;;;;;;0.00;0.00;;;;;;;;;;4995346;28;20117;-81
2023/05/31 09:13:54;;;;;;;0.00;0.00;;;;;;;;;;4995720;28;20108;-81
2023/05/31 09:16:20;;;;;;;0.00;0.00;;;;;;;;;;4992982;28;20038;-80
2023/05/31 09:18:46;;;;;;;0.00;0.00;;;;;;;;;;4994286;28;20034;-80
2023/05/31 09:21:13;;;;;;;0.20;0.20;;;;;;;;;;4995116;28;20473;-80
2023/05/31 09:24:12;;;;;;;0.00;0.00;;;;;;;;;;4994474;28;20046;-80
2023/05/31 09:26:47;;;;;;;0.00;0.00;;;;;;;;;;4952354;28;20054;-80
2023/05/31 09:29:15;;;;;;;0.00;0.00;;;;;;;;;;4994241;28;20418;-80
2023/05/31 09:31:41;;;;;;;0.00;0.00;;;;;;;;;;4995301;28;20593;-80
2023/05/31 09:34:23;;;;;;;0.00;0.00;;;;;;;;;;4995100;28;20052;-80
2023/05/31 09:36:51;;;;;;;0.00;0.00;;;;;;;;;;4993734;28;20494;-80
2023/05/31 09:39:17;;;;;;;0.00;0.00;;;;;;;;;;4994130;28;20539;-79
2023/05/31 09:41:43;;;;;;;0.00;0.00;;;;;;;;;;4993567;28;20125;-81
2023/05/31 09:44:09;;;;;;;0.00;0.00;;;;;;;;;;4993689;28;20065;-80
2023/05/31 09:46:35;;;;;;;0.00;0.00;;;;;;;;;;4994829;28;20050;-80
2023/05/31 09:49:03;;;;;;;0.00;0.00;;;;;;;;;;4994896;28;20065;-80
2023/05/31 09:51:30;;;;;;;0.00;0.00;;;;;;;;;;4994889;28;20050;-80
2023/05/31 09:53:56;;;;;;;0.00;0.00;;;;;;;;;;4994688;28;20494;-80
2023/05/31 09:56:23;;;;;;;0.00;0.00;;;;;;;;;;4993567;28;20038;-80
2023/05/31 09:58:52;;;;;;;0.00;0.00;;;;;;;;;;4994966;28;20049;-80
2023/05/31 10:01:21;;;;;;;0.00;0.00;;;;;;;;;;4992986;28;20057;-79
2023/05/31 10:03:49;;;;;;;0.00;0.00;;;;;;;;;;4994547;28;20130;-79
2023/05/31 10:06:19;;;;;;;0.00;0.00;;;;;;;;;;4994627;28;20039;-80
2023/05/31 10:08:46;;;;;;;0.00;0.00;;;;;;;;;;4993257;28;20046;-80
2023/05/31 10:11:14;;;;;;;0.00;0.00;;;;;;;;;;4994254;28;20045;-80
2023/05/31 10:13:43;;;;;;;0.10;0.00;;;;;;;;;;4993171;28;20125;-80
2023/05/31 10:16:10;;;;;;;0.00;0.00;;;;;;;;;;4992759;28;20102;-80
2023/05/31 10:18:43;;;;;;;0.00;0.00;;;;;;;;;;4993087;28;20501;-80
2023/05/31 10:21:10;;;;;;;0.00;0.00;;;;;;;;;;4994191;28;20109;-80
2023/05/31 10:23:41;;;;;;;0.00;0.00;;;;;;;;;;4994494;28;20038;-80
2023/05/31 10:26:17;;;;;;;0.00;0.00;;;;;;;;;;4993748;28;20046;-80
2023/05/31 10:29:02;;;;;;;0.00;0.00;;;;;;;;;;4993239;28;20831;-79
2023/05/31 10:31:35;;;;;;;0.00;0.00;;;;;;;;;;4993060;28;20046;-80
2023/05/31 10:34:07;;;;;;;0.00;0.00;;;;;;;;;;4992819;28;20078;-80
2023/05/31 10:36:33;;;;;;;0.00;0.00;;;;;;;;;;4992888;28;20046;-80
2023/05/31 10:39:05;;;;;;;0.00;0.00;;;;;;;;;;4994045;28;20053;-80
2023/05/31 10:41:38;;;;;;;0.00;0.00;;;;;;;;;;4994324;28;20073;-80
2023/05/31 10:44:07;;;;;;;0.00;0.00;;;;;;;;;;4994326;28;20050;-81
2023/05/31 10:46:35;;;;;;;0.00;0.00;;;;;;;;;;4992500;28;20046;-83
2023/05/31 10:49:03;;;;;;;0.00;0.00;;;;;;;;;;4993702;28;20469;-81
2023/05/31 10:51:39;;;;;;;0.00;0.00;;;;;;;;;;4993658;28;20200;-80
2023/05/31 10:54:05;;;;;;;0.00;0.00;;;;;;;;;;4993724;28;20478;-81
2023/05/31 10:56:31;;;;;;;0.00;0.00;;;;;;;;;;4993453;28;20049;-81
2023/05/31 10:58:57;;;;;;;0.00;0.00;;;;;;;;;;4992648;28;20042;-81
2023/05/31 11:01:28;;;;;;;0.00;0.00;;;;;;;;;;4992248;28;20054;-81
2023/05/31 11:03:57;;;;;;;0.00;0.00;;;;;;;;;;4993496;28;20137;-81
2023/05/31 11:06:25;;;;;;;0.00;0.00;;;;;;;;;;4993518;28;20482;-81
2023/05/31 11:09:01;;;;;;;0.00;0.00;;;;;;;;;;4992445;28;20047;-80
2023/05/31 11:11:33;;;;;;;0.00;0.00;;;;;;;;;;4992390;28;20050;-81
2023/05/31 11:14:00;;;;;;;0.00;0.00;;;;;;;;;;4993438;28;20054;-80
2023/05/31 11:16:27;;;;;;;0.00;0.00;;;;;;;;;;4992223;28;20416;-81
2023/05/31 11:19:03;;;;;;;0.00;0.00;;;;;;;;;;4993449;28;20544;-81
2023/05/31 11:21:48;;;;;;;0.00;0.00;;;;;;;;;;4992018;28;20050;-80
2023/05/31 11:24:30;;;;;;;0.00;0.00;;;;;;;;;;4992091;28;20129;-81
2023/05/31 11:27:01;;;;;;;0.00;0.00;;;;;;;;;;4993215;28;20057;-80
2023/05/31 11:29:53;;;;;;;0.00;0.00;;;;;;;;;;4992210;28;20503;-80
2023/05/31 11:32:23;;;;;;;0.00;0.00;;;;;;;;;;4993133;28;20046;-80
2023/05/31 11:34:53;;;;;;;0.00;0.00;;;;;;;;;;4989828;28;20038;-81
2023/05/31 11:37:21;;;;;;;0.00;0.00;;;;;;;;;;4992850;28;20042;-81
2023/05/31 11:39:47;;;;;;;0.00;0.00;;;;;;;;;;4991376;28;20050;-81
2023/05/31 11:42:14;;;;;;;0.00;0.00;;;;;;;;;;4993305;28;20083;-78
2023/05/31 11:44:42;;;;;;;0.00;0.00;;;;;;;;;;4993235;28;20038;-80
2023/05/31 11:47:10;;;;;;;0.00;0.00;;;;;;;;;;4991839;28;20130;-80
2023/05/31 11:49:36;;;;;;;0.00;0.00;;;;;;;;;;4993064;28;20055;-80
2023/05/31 11:52:03;;;;;;;0.00;0.00;;;;;;;;;;4991735;28;20510;-80
2023/05/31 11:54:30;;;;;;;0.00;0.00;;;;;;;;;;4991750;28;20070;-80
2023/05/31 11:56:57;;;;;;;0.00;0.00;;;;;;;;;;4991851;28;20092;-80
2023/05/31 11:59:23;;;;;;;0.00;0.00;;;;;;;;;;4992157;28;20054;-80
2023/05/31 12:01:49;;;;;;;0.00;0.00;;;;;;;;;;4992820;28;20046;-80
2023/05/31 12:04:15;;;;;;;0.00;0.00;;;;;;;;;;4991395;28;20062;-80
2023/05/31 12:06:41;;;;;;;0.00;0.00;;;;;;;;;;4991487;28;20050;-80
2023/05/31 12:09:11;;;;;;;0.10;0.10;;;;;;;;;;4993084;28;20038;-80
2023/05/31 12:11:37;;;;;;;0.00;0.00;;;;;;;;;;4993109;28;20050;-79
2023/05/31 12:14:03;;;;;;;0.00;0.00;;;;;;;;;;4991677;28;20053;-80
2023/05/31 12:16:29;;;;;;;0.00;0.00;;;;;;;;;;4992875;28;20038;-80
2023/05/31 12:18:56;;;;;;;0.13;0.08;;;;;;;;;;4991194;28;20394;-80
2023/05/31 12:21:22;;;;;;;0.00;0.00;;;;;;;;;;4991414;28;20045;-79
2023/05/31 12:23:52;;;;;;;0.00;0.00;;;;;;;;;;4991699;28;20046;-80
2023/05/31 12:26:18;;;;;;;0.00;0.00;;;;;;;;;;4991476;28;20050;-80
2023/05/31 12:28:45;;;;;;;0.00;0.00;;;;;;;;;;4992706;28;20052;-80
2023/05/31 12:31:19;;;;;;;0.00;0.00;;;;;;;;;;4992822;28;20038;-80
2023/05/31 12:33:51;;;;;;;0.00;0.00;;;;;;;;;;4991120;28;20069;-80
2023/05/31 12:36:17;;;;;;;0.00;0.00;;;;;;;;;;4992932;28;20045;-80
2023/05/31 12:38:43;;;;;;;0.00;0.00;;;;;;;;;;4992511;28;20038;-80
2023/05/31 12:41:09;;;;;;;0.00;0.00;;;;;;;;;;4991627;28;20122;-79
2023/05/31 12:43:35;;;;;;;0.00;0.00;;;;;;;;;;4992441;28;20041;-80
2023/05/31 12:46:01;;;;;;;0.00;0.00;;;;;;;;;;4992528;28;20045;-80
2023/05/31 12:48:27;;;;;;;0.00;0.00;;;;;;;;;;4992517;28;20394;-80
2023/05/31 12:50:57;;;;;;;0.00;0.00;;;;;;;;;;4994255;28;20061;-80
2023/05/31 12:53:25;;;;;;;0.00;0.00;;;;;;;;;;4996137;28;20336;-80
2023/05/31 12:55:51;;;;;;;0.00;0.00;;;;;;;;;;4978460;28;20050;-80
2023/05/31 12:58:17;;;;;;;0.00;0.00;;;;;;;;;;4994417;28;20047;-80
2023/05/31 13:00:44;;;;;;;0.00;0.00;;;;;;;;;;4989366;28;20105;-81
2023/05/31 13:03:13;;;;;;;0.00;0.00;;;;;;;;;;4970000;28;20261;-79
2023/05/31 13:05:39;;;;;;;0.00;0.00;;;;;;;;;;4976178;28;20134;-79
2023/05/31 13:08:05;;;;;;;0.00;0.00;;;;;;;;;;4976079;28;20050;-79
2023/05/31 13:10:32;;;;;;;0.00;0.00;;;;;;;;;;4974821;28;20046;-79
2023/05/31 13:12:58;;;;;;;0.00;0.00;;;;;;;;;;4976165;28;20070;-79
2023/05/31 13:15:23;;;;;;;0.20;0.17;;;;;;;;;;4974635;28;20475;-80
2023/05/31 13:17:51;;;;;;;0.00;0.00;;;;;;;;;;4974522;28;20050;-79
2023/05/31 13:20:17;;;;;;;0.00;0.00;;;;;;;;;;4970390;28;20487;-79
2023/05/31 13:22:43;;;;;;;0.00;0.00;;;;;;;;;;4974731;28;20050;-79
2023/05/31 13:25:09;;;;;;;0.00;0.00;;;;;;;;;;4956561;28;20046;-80
2023/05/31 13:27:36;;;;;;;0.00;0.00;;;;;;;;;;4956611;29;20043;-79
2023/05/31 13:30:02;;;;;;;0.00;0.00;;;;;;;;;;4956574;28;20051;-79
2023/05/31 13:32:28;;;;;;;0.00;0.00;;;;;;;;;;4956366;28;20066;-80
2023/05/31 13:34:54;;;;;;;0.00;0.00;;;;;;;;;;4956198;29;20122;-80
2023/05/31 13:37:20;;;;;;;0.00;0.00;;;;;;;;;;4955177;29;20377;-79
2023/05/31 13:39:47;;;;;;;0.00;0.00;;;;;;;;;;4954511;28;20050;-80
2023/05/31 13:42:13;;;;;;;0.00;0.00;;;;;;;;;;4938523;29;20125;-80
2023/05/31 13:44:39;;;;;;;0.00;0.00;;;;;;;;;;4956145;29;20099;-80
2023/05/31 13:47:05;;;;;;;0.00;0.00;;;;;;;;;;4954984;29;20081;-80
2023/05/31 13:49:31;;;;;;;0.00;0.00;;;;;;;;;;4938737;29;20047;-81
2023/05/31 13:51:58;;;;;;;0.00;0.00;;;;;;;;;;4939317;29;20043;-80
2023/05/31 13:54:24;;;;;;;0.00;0.00;;;;;;;;;;4954901;29;20052;-81
2023/05/31 13:56:50;;;;;;;0.00;0.00;;;;;;;;;;4956294;29;20546;-80
2023/05/31 13:59:16;;;;;;;0.00;0.00;;;;;;;;;;4954393;28;20047;-80
2023/05/31 14:01:42;;;;;;;0.20;0.00;;;;;;;;;;4954044;28;20054;-81
2023/05/31 14:04:08;;;;;;;0.00;0.00;;;;;;;;;;4955723;29;20127;-82
2023/05/31 14:06:35;;;;;;;0.22;0.17;;;;;;;;;;4956054;29;20402;-81
2023/05/31 14:09:01;;;;;;;0.00;0.00;;;;;;;;;;4955605;28;20418;-80
2023/05/31 14:11:27;;;;;;;0.00;0.00;;;;;;;;;;4955982;29;20047;-80
2023/05/31 14:13:53;;;;;;;0.00;0.00;;;;;;;;;;4955706;29;20043;-80
2023/05/31 14:16:20;;;;;;;0.00;0.00;;;;;;;;;;4954460;29;20472;-80
2023/05/31 14:18:46;;;;;;;0.00;0.00;;;;;;;;;;4955497;29;20126;-80
2023/05/31 14:21:11;;;;;;;0.00;0.00;;;;;;;;;;4954661;28;20145;-80
2023/05/31 14:23:39;;;;;;;0.00;0.00;;;;;;;;;;4954273;29;20050;-80
2023/05/31 14:26:05;;;;;;;0.00;0.00;;;;;;;;;;4954218;29;20051;-80
2023/05/31 14:28:31;;;;;;;0.03;0.00;;;;;;;;;;4953941;29;20151;-81
2023/05/31 14:30:57;;;;;;;0.00;0.00;;;;;;;;;;4955549;28;20046;-81
2023/05/31 14:33:24;;;;;;;0.00;0.00;;;;;;;;;;4938002;29;20668;-81
2023/05/31 14:35:50;;;;;;;0.00;0.00;;;;;;;;;;4955334;29;20511;-80
2023/05/31 14:38:16;;;;;;;0.00;0.00;;;;;;;;;;4953750;29;20043;-81
2023/05/31 14:40:42;;;;;;;0.00;0.00;;;;;;;;;;4954001;28;20043;-81
2023/05/31 14:43:08;;;;;;;0.00;0.00;;;;;;;;;;4954055;29;20050;-80